Terminal Aerodrome Forecast
Issued by NWS Wakefield, VA

Home | Current Version | Previous Version | Text Only | Print | Product List | Glossary On
Versions: 1 2 3 4 5 6 7 8 9 10 11 12 13 14 15 16 17 18 19 20 21 22 23 24 25 26 27
000
FTUS41 KAKQ 040100 AAA
TAFORF
TAF AMD
KORF 040100Z 0401/0424 21008KT P6SM OVC015
      TEMPO 0403/0405 -RA OVC008
     FM040500 22012KT 4SM -RA BR OVC008
     FM040800 22014KT 4SM -DZ BR OVC004
     FM041500 24014G23KT P6SM OVC008
     FM041900 22013G22KT 4SM BR OVC020=

USA.gov is the U.S. government's official web portal to all federal, state and local government web resources and services.